Time;durP1;ratioP1;P1;durP2;ratioP2;P2;SDS_P1;SDS_P2;PMS_P1;PMS_P2;Temp;Humidity;BMP_temperature;BMP_pressure;BME280_temperature;BME280_humidity;BME280_pressure;Samples;Min_cycle;Max_cycle;Signal;HPM_P1;HPM_P2
2023/03/22 08:17:01;;;;;;;4.18;1.90;;;16.10;99.90;;;;;;5072409;28;20375;-63
2023/03/22 08:19:27;;;;;;;7.25;2.20;;;16.20;99.90;;;;;;5070987;28;20025;-64
2023/03/22 08:21:53;;;;;;;6.47;1.92;;;16.30;99.90;;;;;;5071033;28;20029;-63
2023/03/22 08:24:41;;;;;;;6.80;2.30;;;16.40;99.90;;;;;;5057333;28;20033;-64
2023/03/22 08:27:13;;;;;;;8.48;2.10;;;16.40;99.90;;;;;;5071169;28;20151;-64
2023/03/22 08:29:46;;;;;;;6.38;2.13;;;16.50;99.90;;;;;;5070653;28;20037;-64
2023/03/22 08:32:13;;;;;;;6.38;1.83;;;16.50;99.90;;;;;;5050661;28;20033;-64
2023/03/22 08:34:40;;;;;;;5.95;1.90;;;16.50;99.90;;;;;;5050637;28;20056;-64
2023/03/22 08:37:09;;;;;;;3.53;1.60;;;16.60;99.90;;;;;;5067604;28;20037;-64
2023/03/22 08:39:36;;;;;;;6.45;1.80;;;16.60;99.90;;;;;;5050311;28;20021;-63
2023/03/22 08:42:17;;;;;;;6.03;1.90;;;16.60;99.90;;;;;;5062425;28;20035;-65
2023/03/22 08:44:44;;;;;;;6.25;1.92;;;16.60;99.90;;;;;;5070210;28;20116;-65
2023/03/22 08:47:11;;;;;;;7.82;1.73;;;16.70;99.90;;;;;;5054143;28;20057;-65
2023/03/22 08:49:38;;;;;;;5.60;1.60;;;16.60;99.90;;;;;;5052899;28;20474;-65
2023/03/22 08:52:12;;;;;;;6.22;1.80;;;16.70;99.90;;;;;;5070176;28;20032;-65
2023/03/22 08:55:00;;;;;;;6.18;2.20;;;16.70;99.90;;;;;;5060712;28;20124;-65
2023/03/22 08:57:49;;;;;;;6.03;1.88;;;16.70;99.90;;;;;;5069458;28;20626;-65
2023/03/22 09:00:33;;;;;;;6.55;1.67;;;16.70;99.90;;;;;;5069987;28;20370;-65
2023/03/22 09:03:09;;;;;;;4.95;1.63;;;16.70;99.90;;;;;;5068802;28;20029;-65
2023/03/22 09:05:36;;;;;;;3.70;1.40;;;16.70;99.90;;;;;;5064337;28;20033;-65
2023/03/22 09:08:04;;;;;;;4.50;1.63;;;16.70;99.90;;;;;;5033661;28;20026;-64
2023/03/22 09:10:38;;;;;;;5.53;1.40;;;16.70;99.90;;;;;;5034405;28;20044;-66
2023/03/22 09:13:04;;;;;;;4.28;1.35;;;16.70;99.90;;;;;;5033559;28;20379;-65
2023/03/22 09:15:31;;;;;;;7.55;1.92;;;16.70;99.90;;;;;;5061502;28;20090;-65
2023/03/22 09:18:18;;;;;;;4.35;1.48;;;16.70;99.90;;;;;;5058236;28;20475;-65
2023/03/22 09:20:45;;;;;;;4.55;1.63;;;16.70;99.90;;;;;;5049849;28;20029;-65
2023/03/22 09:23:14;;;;;;;4.85;1.55;;;16.70;99.90;;;;;;5050048;28;20021;-65
2023/03/22 09:25:44;;;;;;;5.13;1.40;;;16.70;99.90;;;;;;5066268;28;20083;-63
2023/03/22 09:28:10;;;;;;;5.90;1.60;;;16.70;99.90;;;;;;5037843;28;20100;-63
2023/03/22 09:30:37;;;;;;;3.15;1.33;;;16.80;99.90;;;;;;5037795;28;20156;-63
2023/03/22 09:33:05;;;;;;;4.88;1.70;;;16.80;99.90;;;;;;5019340;28;20083;-63
2023/03/22 09:35:32;;;;;;;5.22;1.77;;;16.80;99.90;;;;;;5042533;28;20029;-63
2023/03/22 09:38:04;;;;;;;5.22;1.48;;;16.80;99.90;;;;;;5055414;28;20459;-65
2023/03/22 09:40:32;;;;;;;7.47;1.60;;;16.80;99.90;;;;;;5056281;28;20029;-64
2023/03/22 09:43:03;;;;;;;4.93;1.70;;;16.90;99.90;;;;;;5056170;28;20025;-64
2023/03/22 09:45:38;;;;;;;4.65;1.40;;;16.80;99.90;;;;;;5056548;28;20047;-63
2023/03/22 09:48:10;;;;;;;5.90;1.70;;;16.90;99.90;;;;;;5055136;28;20036;-64
2023/03/22 09:50:43;;;;;;;5.40;1.42;;;16.90;99.90;;;;;;5056407;28;20039;-66
2023/03/22 09:53:14;;;;;;;4.72;1.45;;;16.90;99.90;;;;;;5057113;28;20039;-64
2023/03/22 09:55:57;;;;;;;5.65;1.30;;;17.00;99.90;;;;;;5056807;28;20025;-65
2023/03/22 09:58:41;;;;;;;4.43;1.60;;;17.00;99.90;;;;;;5054582;28;20029;-64
2023/03/22 10:01:34;;;;;;;4.70;1.50;;;17.00;99.90;;;;;;5052329;28;20028;-64
2023/03/22 10:04:25;;;;;;;5.97;1.40;;;17.00;99.90;;;;;;5041729;28;20052;-64
2023/03/22 10:07:06;;;;;;;5.95;1.55;;;17.00;99.90;;;;;;5055817;28;20051;-65
2023/03/22 10:09:36;;;;;;;4.57;1.70;;;17.00;99.90;;;;;;5056793;28;20029;-65
2023/03/22 10:12:24;;;;;;;5.70;1.67;;;17.00;99.90;;;;;;5054128;28;20454;-65
2023/03/22 10:15:03;;;;;;;6.68;1.80;;;17.00;99.90;;;;;;5060518;28;20438;-65
2023/03/22 10:17:30;;;;;;;6.97;1.60;;;17.00;99.90;;;;;;5055906;28;20013;-65
2023/03/22 10:20:20;;;;;;;4.15;1.55;;;17.00;99.90;;;;;;5053735;28;20032;-65
2023/03/22 10:22:49;;;;;;;6.88;1.65;;;17.00;99.90;;;;;;5053649;28;20021;-65
2023/03/22 10:25:31;;;;;;;4.85;1.40;;;17.00;99.90;;;;;;5054199;28;20430;-65
2023/03/22 10:27:58;;;;;;;7.72;1.45;;;17.00;99.90;;;;;;5051173;28;20059;-65
2023/03/22 10:30:33;;;;;;;4.57;1.42;;;17.00;99.90;;;;;;5055646;28;20418;-65
2023/03/22 10:33:03;;;;;;;5.05;1.48;;;17.00;99.90;;;;;;5050305;28;20039;-65
2023/03/22 10:35:30;;;;;;;4.20;1.40;;;17.00;99.90;;;;;;5055646;28;20056;-65
2023/03/22 10:38:03;;;;;;;6.57;1.55;;;17.00;99.90;;;;;;5054974;28;20027;-65
2023/03/22 10:40:32;;;;;;;6.82;1.65;;;17.00;99.90;;;;;;5056033;28;20025;-65
2023/03/22 10:43:19;;;;;;;8.30;1.80;;;17.00;99.90;;;;;;5051797;28;20032;-65
2023/03/22 10:45:45;;;;;;;4.95;1.60;;;17.00;99.90;;;;;;5055470;28;20040;-66
2023/03/22 10:48:33;;;;;;;7.55;1.70;;;17.00;99.90;;;;;;5038768;28;20036;-65
2023/03/22 10:51:00;;;;;;;6.72;1.77;;;17.10;99.90;;;;;;5055855;28;20029;-67
2023/03/22 10:53:43;;;;;;;7.68;2.00;;;17.00;99.90;;;;;;5055989;28;20120;-66
2023/03/22 10:56:15;;;;;;;7.45;1.35;;;17.10;99.90;;;;;;5055052;28;20044;-66
2023/03/22 10:58:41;;;;;;;5.95;1.48;;;17.10;99.90;;;;;;5054826;28;20146;-68
2023/03/22 11:01:08;;;;;;;7.72;1.48;;;17.10;99.90;;;;;;5055731;28;20025;-66
2023/03/22 11:03:35;;;;;;;7.03;1.70;;;17.20;99.90;;;;;;5054757;28;20091;-68
2023/03/22 11:06:05;;;;;;;5.82;1.60;;;17.10;99.90;;;;;;5055382;28;20498;-68
2023/03/22 11:08:42;;;;;;;3.58;1.30;;;17.10;99.90;;;;;;5056029;28;20037;-67
2023/03/22 11:11:31;;;;;;;4.50;1.40;;;17.10;99.90;;;;;;5055571;28;20033;-68
2023/03/22 11:14:15;;;;;;;6.35;1.63;;;17.20;99.90;;;;;;5055350;28;20029;-68
2023/03/22 11:17:12;;;;;;;4.38;1.52;;;17.20;99.90;;;;;;5055440;28;20355;-66
2023/03/22 11:19:48;;;;;;;3.47;1.08;;;17.20;99.90;;;;;;5049912;28;20047;-68
2023/03/22 11:22:35;;;;;;;4.07;1.50;;;17.20;99.90;;;;;;5055692;28;20090;-68
2023/03/22 11:25:05;;;;;;;3.50;1.10;;;17.20;99.90;;;;;;5055364;28;20416;-67
2023/03/22 11:27:32;;;;;;;4.72;1.45;;;17.20;99.90;;;;;;5054795;28;20016;-67
2023/03/22 11:30:16;;;;;;;4.57;1.50;;;17.20;99.90;;;;;;5049084;28;20025;-68
2023/03/22 11:32:42;;;;;;;4.82;1.50;;;17.20;99.90;;;;;;5040386;28;20039;-67
2023/03/22 11:35:28;;;;;;;3.92;1.33;;;17.20;99.90;;;;;;5054103;28;20033;-65
2023/03/22 11:37:55;;;;;;;4.03;1.20;;;17.20;99.90;;;;;;5053621;28;20160;-67
2023/03/22 11:40:22;;;;;;;5.55;1.55;;;17.20;99.90;;;;;;5036590;28;20116;-66
2023/03/22 11:42:52;;;;;;;3.30;1.27;;;17.30;99.90;;;;;;5054299;28;20028;-71
2023/03/22 11:45:28;;;;;;;3.83;1.33;;;17.20;99.90;;;;;;5055376;28;20025;-67
2023/03/22 11:48:02;;;;;;;5.25;1.65;;;17.20;99.90;;;;;;5053836;28;20036;-67
2023/03/22 11:50:34;;;;;;;3.67;1.20;;;17.20;99.90;;;;;;5054015;28;20044;-66
2023/03/22 11:53:02;;;;;;;3.85;1.20;;;17.20;99.90;;;;;;5054681;28;20029;-66
2023/03/22 11:55:30;;;;;;;5.18;1.42;;;17.20;99.90;;;;;;5054029;28;20037;-66
2023/03/22 11:57:57;;;;;;;4.07;1.33;;;17.20;99.90;;;;;;5054469;28;20497;-66
2023/03/22 12:00:28;;;;;;;4.65;1.15;;;17.20;99.90;;;;;;5054036;28;20021;-67
2023/03/22 12:03:02;;;;;;;4.30;1.42;;;17.20;99.90;;;;;;5053513;28;20079;-66
2023/03/22 12:05:32;;;;;;;3.47;1.30;;;17.20;99.90;;;;;;5054909;28;20021;-66
2023/03/22 12:08:27;;;;;;;6.97;1.48;;;17.20;99.90;;;;;;5054401;28;20029;-66
2023/03/22 12:11:16;;;;;;;4.50;1.60;;;17.20;99.90;;;;;;5044855;28;20111;-66
2023/03/22 12:13:48;;;;;;;3.17;1.50;;;17.20;99.90;;;;;;5054732;28;20033;-67
2023/03/22 12:16:21;;;;;;;4.85;2.00;;;17.20;99.90;;;;;;5053089;28;20049;-66
2023/03/22 12:19:20;;;;;;;5.35;1.88;;;17.20;99.90;;;;;;5052617;28;20474;-66
2023/03/22 12:21:49;;;;;;;5.90;1.67;;;17.20;99.90;;;;;;5035068;28;20079;-67
2023/03/22 12:24:31;;;;;;;5.07;1.85;;;17.20;99.90;;;;;;5046121;28;20090;-67
2023/03/22 12:27:11;;;;;;;5.47;1.70;;;17.20;99.90;;;;;;5037586;28;20032;-66
2023/03/22 12:29:43;;;;;;;4.20;1.67;;;17.20;99.90;;;;;;5044572;28;20136;-67
2023/03/22 12:32:18;;;;;;;4.15;1.70;;;17.20;99.90;;;;;;5048936;28;20554;-68
2023/03/22 12:34:48;;;;;;;6.50;2.17;;;17.10;99.90;;;;;;5043645;28;20344;-68
2023/03/22 12:37:19;;;;;;;5.55;1.90;;;17.20;99.90;;;;;;5051527;28;20786;-67
2023/03/22 12:39:47;;;;;;;4.15;1.60;;;17.10;99.90;;;;;;5030548;28;20048;-70
2023/03/22 12:42:43;;;;;;;4.97;1.83;;;17.20;99.90;;;;;;5049288;28;21008;-68
2023/03/22 12:45:21;;;;;;;4.47;1.92;;;17.20;99.90;;;;;;5051181;28;20040;-68
2023/03/22 12:48:08;;;;;;;4.63;1.77;;;17.10;99.90;;;;;;5033267;28;20029;-65
2023/03/22 12:50:50;;;;;;;3.83;1.63;;;17.10;99.90;;;;;;5041951;28;20040;-67
2023/03/22 12:53:18;;;;;;;5.10;1.92;;;17.10;99.90;;;;;;5051324;28;20436;-67
2023/03/22 12:55:46;;;;;;;5.22;1.80;;;17.10;99.90;;;;;;5043662;28;20029;-68
2023/03/22 12:58:19;;;;;;;4.55;1.70;;;17.10;99.90;;;;;;5052457;28;20037;-66
2023/03/22 13:01:05;;;;;;;5.47;1.83;;;17.10;99.90;;;;;;5052045;28;20025;-66
2023/03/22 13:03:43;;;;;;;4.50;1.58;;;17.10;99.90;;;;;;5055235;28;20033;-67
2023/03/22 13:06:42;;;;;;;7.63;2.03;;;17.10;99.90;;;;;;5046919;28;20071;-67
2023/03/22 13:09:17;;;;;;;5.03;1.70;;;17.10;99.90;;;;;;5034573;28;20041;-67
2023/03/22 13:11:47;;;;;;;5.70;1.67;;;17.10;99.90;;;;;;5038303;28;20116;-68
2023/03/22 13:14:48;;;;;;;7.20;1.80;;;17.10;99.90;;;;;;5036471;28;20061;-68
2023/03/22 13:17:38;;;;;;;6.97;2.10;;;17.10;99.90;;;;;;5036313;28;20077;-67
2023/03/22 13:20:10;;;;;;;4.47;1.63;;;17.10;99.90;;;;;;5036594;28;20036;-67
2023/03/22 13:22:42;;;;;;;5.78;1.80;;;17.10;99.90;;;;;;5037738;28;20069;-67
2023/03/22 13:25:17;;;;;;;7.60;1.80;;;17.10;99.90;;;;;;5037368;28;20067;-67
2023/03/22 13:28:22;;;;;;;7.70;1.90;;;17.10;99.90;;;;;;5037561;28;20026;-67
2023/03/22 13:30:54;;;;;;;4.25;1.50;;;17.10;99.90;;;;;;5037565;28;20060;-67
2023/03/22 13:33:28;;;;;;;5.20;2.00;;;17.00;99.90;;;;;;5036276;28;20033;-67
2023/03/22 13:36:05;;;;;;;7.22;1.75;;;17.10;99.90;;;;;;5045131;28;20032;-67
2023/03/22 13:38:38;;;;;;;6.25;1.80;;;17.10;99.90;;;;;;5056605;28;20428;-68
2023/03/22 13:41:20;;;;;;;5.07;1.45;;;17.10;99.90;;;;;;5064085;28;20029;-67
2023/03/22 13:43:49;;;;;;;5.65;1.80;;;17.10;99.90;;;;;;5037379;28;20021;-67
2023/03/22 13:46:21;;;;;;;8.57;2.00;;;17.00;99.90;;;;;;5052233;28;20060;-67
2023/03/22 13:48:46;;;;;;;5.72;1.88;;;17.00;99.90;;;;;;5055052;28;20086;-67
2023/03/22 13:51:18;;;;;;;5.18;1.80;;;17.00;99.90;;;;;;5056288;28;20056;-67
2023/03/22 13:54:17;;;;;;;6.68;1.73;;;17.10;99.90;;;;;;5044789;28;20029;-67
2023/03/22 13:56:46;;;;;;;5.18;1.55;;;17.10;99.90;;;;;;5049476;28;20032;-67
2023/03/22 13:59:23;;;;;;;6.00;1.60;;;17.00;99.90;;;;;;5054370;28;20373;-67
2023/03/22 14:01:52;;;;;;;5.57;1.67;;;17.00;99.90;;;;;;5053905;28;20021;-67
2023/03/22 14:04:39;;;;;;;4.30;1.60;;;17.00;99.90;;;;;;5054931;28;20037;-68
2023/03/22 14:07:31;;;;;;;5.25;1.77;;;17.00;99.90;;;;;;5050041;28;20320;-67
2023/03/22 14:10:04;;;;;;;9.55;1.83;;;17.00;99.90;;;;;;5052452;28;20040;-67
2023/03/22 14:12:44;;;;;;;4.55;1.65;;;17.00;99.90;;;;;;5053086;28;20021;-65
2023/03/22 14:15:24;;;;;;;7.10;2.10;;;17.00;99.90;;;;;;5049211;28;20436;-65
2023/03/22 14:17:55;;;;;;;6.32;2.03;;;17.00;99.90;;;;;;5054585;28;20045;-67
2023/03/22 14:20:25;;;;;;;3.05;1.25;;;17.00;99.90;;;;;;5043134;28;20044;-69
2023/03/22 14:23:01;;;;;;;4.88;1.90;;;17.00;99.90;;;;;;5054638;28;20024;-67
2023/03/22 14:25:30;;;;;;;;;;;17.00;99.90;;;;;;5055017;28;20057;-68
2023/03/22 14:27:56;;;;;;;7.22;1.60;;;17.00;99.90;;;;;;5053073;28;19923;-68
2023/03/22 14:30:34;;;;;;;5.80;1.55;;;16.90;99.90;;;;;;5054831;28;20111;-67
2023/03/22 14:33:14;;;;;;;4.28;1.60;;;17.00;99.90;;;;;;5049967;28;20086;-69
2023/03/22 14:35:45;;;;;;;4.38;1.40;;;17.00;99.90;;;;;;5051374;28;20070;-67
2023/03/22 14:38:38;;;;;;;6.05;1.77;;;17.00;99.90;;;;;;5033241;28;20044;-67
2023/03/22 14:41:09;;;;;;;5.97;1.50;;;17.00;99.90;;;;;;5042204;28;20436;-66
2023/03/22 14:43:40;;;;;;;4.57;1.33;;;17.00;99.90;;;;;;5050272;28;20017;-67
2023/03/22 14:46:21;;;;;;;3.97;1.45;;;17.00;99.90;;;;;;5030921;28;20424;-69
2023/03/22 14:48:52;;;;;;;5.95;1.73;;;17.00;99.90;;;;;;5047673;28;20036;-68
2023/03/22 14:51:24;;;;;;;10.48;1.83;;;17.00;99.90;;;;;;5051403;28;20450;-67
2023/03/22 14:53:51;;;;;;;6.13;1.50;;;17.00;99.90;;;;;;5051983;28;20028;-68
2023/03/22 14:56:20;;;;;;;5.13;1.60;;;17.00;99.90;;;;;;5054878;28;20017;-68
2023/03/22 14:58:51;;;;;;;5.85;1.73;;;17.00;99.90;;;;;;5050546;28;20324;-68
2023/03/22 15:01:29;;;;;;;4.47;1.73;;;17.00;99.90;;;;;;5055301;28;20021;-67
2023/03/22 15:04:02;;;;;;;6.10;1.50;;;17.00;99.90;;;;;;5050796;28;20375;-67
2023/03/22 15:06:29;;;;;;;4.95;1.52;;;17.00;99.90;;;;;;5049479;28;20033;-68
2023/03/22 15:09:06;;;;;;;5.57;1.60;;;17.00;99.90;;;;;;5046905;28;20317;-68
2023/03/22 15:11:33;;;;;;;7.15;1.58;;;17.00;99.90;;;;;;5049890;28;20032;-67
2023/03/22 15:14:00;;;;;;;7.85;2.00;;;17.00;99.90;;;;;;5049861;28;20080;-67
2023/03/22 15:16:32;;;;;;;6.30;1.73;;;17.00;99.90;;;;;;5052927;28;20039;-67
2023/03/22 15:19:02;;;;;;;5.93;1.90;;;17.00;99.90;;;;;;5052013;28;20020;-68
2023/03/22 15:21:31;;;;;;;5.47;1.52;;;17.00;99.90;;;;;;5050229;28;20044;-68
2023/03/22 15:24:11;;;;;;;4.85;1.33;;;17.00;99.90;;;;;;5053376;28;20021;-67
2023/03/22 15:26:39;;;;;;;4.38;1.42;;;17.00;99.90;;;;;;5051043;28;20485;-67
2023/03/22 15:29:07;;;;;;;5.60;1.50;;;17.00;99.90;;;;;;5053539;28;20064;-66
2023/03/22 15:31:43;;;;;;;5.03;1.55;;;17.00;99.90;;;;;;5051402;28;20032;-66
2023/03/22 15:34:19;;;;;;;5.68;1.48;;;17.00;99.90;;;;;;5049178;28;20052;-67
2023/03/22 15:36:48;;;;;;;;;;;17.00;99.90;;;;;;5052722;28;20029;-66
2023/03/22 15:39:32;;;;;;;7.13;1.70;;;16.90;99.90;;;;;;5058570;28;19913;-66
2023/03/22 15:42:22;;;;;;;3.78;1.40;;;17.00;99.90;;;;;;5032621;28;20040;-67
2023/03/22 15:45:07;;;;;;;6.53;1.50;;;17.00;99.90;;;;;;5050806;28;20424;-67
2023/03/22 15:48:04;;;;;;;4.43;1.40;;;17.00;99.90;;;;;;5045003;28;20102;-67
2023/03/22 15:50:30;;;;;;;3.50;1.35;;;17.00;99.90;;;;;;5043351;28;20056;-67
2023/03/22 15:52:58;;;;;;;4.65;1.35;;;17.00;99.90;;;;;;5054525;28;20075;-66
2023/03/22 15:55:36;;;;;;;3.75;1.52;;;17.00;99.90;;;;;;5054094;28;20065;-66
2023/03/22 15:58:07;;;;;;;7.55;1.20;;;17.00;99.90;;;;;;5052489;28;20513;-67
2023/03/22 16:00:40;;;;;;;5.03;1.45;;;17.00;99.90;;;;;;5046434;28;20013;-67
2023/03/22 16:03:06;;;;;;;4.88;1.13;;;17.00;99.90;;;;;;5051445;28;20114;-66
2023/03/22 16:05:43;;;;;;;5.10;1.40;;;17.00;99.90;;;;;;5049734;28;20059;-66
2023/03/22 16:08:12;;;;;;;4.20;1.40;;;17.00;99.90;;;;;;5047754;28;20029;-67
2023/03/22 16:10:42;;;;;;;4.07;1.33;;;17.00;99.90;;;;;;5048605;28;20112;-66
2023/03/22 16:13:19;;;;;;;9.82;1.92;;;17.00;99.90;;;;;;5053059;28;20030;-66
2023/03/22 16:15:45;;;;;;;6.60;1.90;;;17.10;99.90;;;;;;5035581;28;20025;-66
2023/03/22 16:18:16;;;;;;;8.88;2.05;;;17.10;99.90;;;;;;5050839;28;20171;-67
2023/03/22 16:20:43;;;;;;;8.80;2.53;;;17.10;99.90;;;;;;5052462;28;20126;-67
2023/03/22 16:23:15;;;;;;;7.95;2.35;;;17.10;99.90;;;;;;5051575;28;20029;-67
2023/03/22 16:25:41;;;;;;;8.23;2.35;;;17.10;99.90;;;;;;5052867;28;20028;-67
2023/03/22 16:28:09;;;;;;;6.80;2.58;;;17.10;99.90;;;;;;5053098;28;20068;-67
2023/03/22 16:30:37;;;;;;;9.13;2.60;;;17.10;99.90;;;;;;5052560;28;20165;-67
2023/03/22 16:33:03;;;;;;;7.63;2.40;;;17.10;99.90;;;;;;5051229;28;20381;-67
2023/03/22 16:35:30;;;;;;;7.97;2.50;;;17.10;99.90;;;;;;5053857;28;20037;-67
2023/03/22 16:37:56;;;;;;;8.02;2.50;;;17.10;99.90;;;;;;5055005;28;20025;-67
2023/03/22 16:40:27;;;;;;;7.97;2.90;;;17.10;99.90;;;;;;5055726;28;20463;-66
2023/03/22 16:42:53;;;;;;;10.40;2.78;;;17.10;99.90;;;;;;5055155;28;20063;-66
2023/03/22 16:45:26;;;;;;;9.02;2.65;;;17.10;99.90;;;;;;5055709;28;20052;-70
2023/03/22 16:47:53;;;;;;;9.65;2.78;;;17.10;99.90;;;;;;5053925;28;20360;-66
2023/03/22 16:50:21;;;;;;;9.15;2.97;;;17.20;99.90;;;;;;5056887;28;20143;-70
2023/03/22 16:52:47;;;;;;;9.73;2.90;;;17.20;99.90;;;;;;5055770;28;20033;-66
2023/03/22 16:55:27;;;;;;;8.48;2.85;;;17.20;99.90;;;;;;5056318;28;20037;-67
2023/03/22 16:57:53;;;;;;;7.50;2.55;;;17.20;99.90;;;;;;5056132;28;20076;-66
2023/03/22 17:00:21;;;;;;;6.95;2.45;;;17.20;99.90;;;;;;5056266;28;20029;-66
2023/03/22 17:02:48;;;;;;;8.35;2.90;;;17.20;99.90;;;;;;5053548;28;20335;-66
2023/03/22 17:05:16;;;;;;;6.88;2.45;;;17.20;99.90;;;;;;5056758;28;20081;-67
2023/03/22 17:07:42;;;;;;;6.88;2.40;;;17.20;99.90;;;;;;5056247;28;20029;-67
2023/03/22 17:10:09;;;;;;;9.07;2.65;;;17.20;99.90;;;;;;5057246;28;20033;-66
2023/03/22 17:12:37;;;;;;;6.03;2.03;;;17.20;99.90;;;;;;5055995;28;20033;-66
2023/03/22 17:15:23;;;;;;;7.78;2.30;;;17.20;99.90;;;;;;5056365;28;20530;-66
2023/03/22 17:17:49;;;;;;;7.75;2.78;;;17.30;99.90;;;;;;5054652;28;20045;-66
2023/03/22 17:20:15;;;;;;;7.80;2.80;;;17.20;99.90;;;;;;5057489;28;20033;-67
2023/03/22 17:22:41;;;;;;;6.57;2.42;;;17.20;99.90;;;;;;5057449;28;20029;-67
2023/03/22 17:25:16;;;;;;;9.07;2.53;;;17.20;99.90;;;;;;5056722;28;20040;-66
2023/03/22 17:27:42;;;;;;;5.95;2.00;;;17.20;99.90;;;;;;5056343;28;20026;-66
2023/03/22 17:30:09;;;;;;;6.80;2.20;;;17.20;99.90;;;;;;5047477;28;20101;-66
2023/03/22 17:32:35;;;;;;;8.75;2.20;;;17.20;99.90;;;;;;5034623;28;20080;-67
2023/03/22 17:35:03;;;;;;;7.78;2.20;;;17.20;99.90;;;;;;5050486;28;20028;-66
2023/03/22 17:37:29;;;;;;;7.28;2.03;;;17.20;99.90;;;;;;5054023;28;20041;-66
2023/03/22 17:39:55;;;;;;;6.70;2.33;;;17.20;99.90;;;;;;5054493;28;20089;-67
2023/03/22 17:42:20;;;;;;;6.32;2.10;;;17.20;99.90;;;;;;5054906;28;20029;-66
2023/03/22 17:44:46;;;;;;;7.70;2.30;;;17.20;99.90;;;;;;5053825;28;20056;-67
2023/03/22 17:47:12;;;;;;;5.60;1.90;;;17.20;99.90;;;;;;5055054;28;20465;-67
2023/03/22 17:49:40;;;;;;;7.60;2.10;;;17.20;99.90;;;;;;5052687;28;20090;-67
2023/03/22 17:52:08;;;;;;;5.00;1.88;;;17.20;99.90;;;;;;5048393;28;20025;-67
2023/03/22 17:54:34;;;;;;;4.80;2.05;;;17.20;99.90;;;;;;5045313;28;20040;-67
2023/03/22 17:57:00;;;;;;;4.85;1.58;;;17.20;99.90;;;;;;5052379;28;20247;-67
2023/03/22 17:59:27;;;;;;;5.72;1.90;;;17.20;99.90;;;;;;5051020;28;20033;-65
2023/03/22 18:01:53;;;;;;;4.43;1.80;;;17.20;99.90;;;;;;5043555;28;20034;-67
2023/03/22 18:04:19;;;;;;;7.20;2.00;;;17.20;99.90;;;;;;5044785;28;20381;-67
2023/03/22 18:06:45;;;;;;;7.32;2.33;;;17.20;99.90;;;;;;5051465;28;20444;-68
2023/03/22 18:09:11;;;;;;;9.30;1.98;;;17.20;99.90;;;;;;5053335;28;20044;-67
2023/03/22 18:11:37;;;;;;;6.65;1.90;;;17.30;99.90;;;;;;5054352;28;20760;-67
2023/03/22 18:14:03;;;;;;;6.85;2.28;;;17.30;99.90;;;;;;5052646;28;20091;-67
2023/03/22 18:16:29;;;;;;;8.45;2.40;;;17.30;99.90;;;;;;5039836;28;20163;-69
2023/03/22 18:19:01;;;;;;;5.78;1.92;;;17.30;99.90;;;;;;5051683;28;20492;-68
2023/03/22 18:21:29;;;;;;;6.50;2.00;;;17.30;99.90;;;;;;5054413;28;20025;-67
2023/03/22 18:23:56;;;;;;;6.47;2.00;;;17.30;99.90;;;;;;5053139;28;20072;-67
2023/03/22 18:26:22;;;;;;;6.28;1.90;;;17.40;99.90;;;;;;5036950;28;20044;-67
2023/03/22 18:28:49;;;;;;;5.53;2.10;;;17.40;99.90;;;;;;5053392;28;20033;-67
2023/03/22 18:31:15;;;;;;;9.25;2.20;;;17.40;99.90;;;;;;5053198;28;20037;-68
2023/03/22 18:33:43;;;;;;;9.25;2.10;;;17.40;99.90;;;;;;5051637;28;20033;-68
2023/03/22 18:36:10;;;;;;;7.47;2.38;;;17.40;99.90;;;;;;5052897;28;20052;-68
2023/03/22 18:38:36;;;;;;;13.20;2.42;;;17.50;99.90;;;;;;5053198;28;20017;-77
2023/03/22 18:41:13;;;;;;;7.00;2.30;;;17.50;99.90;;;;;;5053946;28;20031;-77
2023/03/22 18:43:40;;;;;;;6.35;1.75;;;17.50;99.90;;;;;;5051351;28;20127;-68
2023/03/22 18:46:14;;;;;;;7.20;1.75;;;17.50;99.90;;;;;;5044319;28;20033;-68
2023/03/22 18:48:41;;;;;;;7.05;1.70;;;17.60;99.90;;;;;;5038477;28;20102;-68
2023/03/22 18:51:08;;;;;;;6.20;1.85;;;17.60;99.90;;;;;;5046434;28;20352;-69
2023/03/22 18:53:35;;;;;;;6.25;2.00;;;17.60;99.90;;;;;;5042813;28;20107;-68
2023/03/22 18:56:02;;;;;;;6.68;1.73;;;17.60;99.90;;;;;;5053416;28;20120;-69
2023/03/22 18:58:28;;;;;;;4.97;1.73;;;17.60;99.90;;;;;;5049554;28;20029;-68
2023/03/22 19:00:55;;;;;;;5.25;1.75;;;17.60;99.90;;;;;;5051713;28;20044;-67
2023/03/22 19:03:22;;;;;;;5.80;1.88;;;17.60;99.90;;;;;;5049604;28;20467;-68
2023/03/22 19:05:48;;;;;;;4.78;1.60;;;17.70;99.90;;;;;;5051611;28;20032;-68
2023/03/22 19:08:14;;;;;;;7.20;1.90;;;17.70;99.90;;;;;;5051184;28;20140;-67
2023/03/22 19:10:42;;;;;;;3.40;1.60;;;17.70;99.90;;;;;;5052796;28;20025;-68
2023/03/22 19:13:09;;;;;;;5.95;1.60;;;17.70;99.90;;;;;;5050946;28;20037;-68
2023/03/22 19:15:35;;;;;;;5.15;1.73;;;17.70;99.90;;;;;;5052880;28;20434;-68
2023/03/22 19:18:02;;;;;;;3.63;1.52;;;17.70;99.90;;;;;;5051070;28;20124;-69
2023/03/22 19:20:28;;;;;;;3.65;1.38;;;17.80;99.90;;;;;;5051764;28;20029;-68
2023/03/22 19:22:54;;;;;;;4.85;1.80;;;17.70;99.90;;;;;;5031607;28;20036;-69
2023/03/22 19:25:19;;;;;;;2.95;1.60;;;17.70;99.90;;;;;;5052732;28;20070;-69
2023/03/22 19:27:46;;;;;;;4.07;1.50;;;17.80;99.90;;;;;;5052110;28;20033;-68
2023/03/22 19:30:13;;;;;;;3.78;1.63;;;17.80;99.90;;;;;;5052209;28;20048;-70
2023/03/22 19:32:39;;;;;;;2.78;1.50;;;17.80;99.90;;;;;;5050286;28;20044;-70
2023/03/22 19:35:07;;;;;;;3.28;1.40;;;17.80;99.90;;;;;;5052251;28;20036;-68
2023/03/22 19:37:33;;;;;;;4.03;1.30;;;17.80;99.90;;;;;;5052199;28;20047;-68
2023/03/22 19:39:59;;;;;;;2.63;1.30;;;17.80;99.90;;;;;;5053287;28;20029;-68
2023/03/22 19:42:25;;;;;;;4.45;2.05;;;17.80;99.90;;;;;;5053407;28;20428;-68
2023/03/22 19:44:51;;;;;;;4.72;1.40;;;17.80;99.90;;;;;;5053690;28;20079;-67
2023/03/22 19:47:17;;;;;;;3.88;1.33;;;17.80;99.90;;;;;;5054706;28;20376;-68
2023/03/22 19:49:44;;;;;;;4.95;1.63;;;17.90;99.90;;;;;;5052849;28;20463;-67
2023/03/22 19:52:11;;;;;;;4.32;1.38;;;17.90;99.90;;;;;;5054632;28;20029;-68
2023/03/22 19:54:37;;;;;;;3.10;1.20;;;17.90;99.90;;;;;;5053758;28;20035;-68
2023/03/22 19:57:03;;;;;;;3.75;1.58;;;17.90;99.90;;;;;;5037317;28;20033;-68
2023/03/22 19:59:30;;;;;;;3.13;1.33;;;17.90;99.90;;;;;;5054085;28;20112;-68
2023/03/22 20:01:56;;;;;;;4.05;1.23;;;18.00;99.90;;;;;;5053327;28;20074;-68
2023/03/22 20:04:22;;;;;;;2.72;1.33;;;17.90;99.90;;;;;;5034141;28;20367;-68
2023/03/22 20:06:48;;;;;;;3.00;1.30;;;18.00;99.90;;;;;;5052731;28;20371;-68
2023/03/22 20:09:14;;;;;;;2.75;1.33;;;18.00;99.90;;;;;;5052415;28;20041;-68
2023/03/22 20:11:40;;;;;;;3.83;1.50;;;18.00;99.90;;;;;;5051405;28;20078;-68
2023/03/22 20:14:06;;;;;;;2.50;1.40;;;18.00;99.90;;;;;;5052577;28;20029;-68
2023/03/22 20:16:37;;;;;;;4.22;1.42;;;18.00;99.90;;;;;;5035661;28;20068;-68
2023/03/22 20:19:04;;;;;;;2.78;1.50;;;18.00;99.90;;;;;;5051881;28;20045;-68
2023/03/22 20:21:32;;;;;;;3.47;1.30;;;18.00;99.90;;;;;;5054572;28;20029;-68
2023/03/22 20:23:59;;;;;;;4.20;1.50;;;18.00;99.90;;;;;;5054078;28;20431;-69
2023/03/22 20:26:25;;;;;;;2.15;1.40;;;18.00;99.90;;;;;;5048402;28;20033;-67
2023/03/22 20:28:51;;;;;;;3.60;1.30;;;18.00;99.90;;;;;;5050376;28;20332;-66
2023/03/22 20:31:17;;;;;;;4.28;1.45;;;18.10;99.90;;;;;;5050407;28;20037;-67
2023/03/22 20:33:43;;;;;;;6.07;1.48;;;18.00;99.90;;;;;;5034565;28;20056;-67
2023/03/22 20:36:10;;;;;;;3.65;1.60;;;18.10;99.90;;;;;;5052846;28;20032;-67
2023/03/22 20:38:37;;;;;;;2.53;1.40;;;18.10;99.90;;;;;;5051617;28;20033;-67
2023/03/22 20:41:03;;;;;;;3.45;1.52;;;18.10;99.90;;;;;;5053681;28;20374;-66
2023/03/22 20:43:29;;;;;;;3.22;1.70;;;18.10;99.90;;;;;;5036718;28;20134;-66
2023/03/22 20:45:55;;;;;;;3.88;1.77;;;18.10;99.90;;;;;;5042603;28;20108;-66
2023/03/22 20:48:22;;;;;;;4.82;1.70;;;18.10;99.90;;;;;;5033196;28;20044;-66
2023/03/22 20:50:50;;;;;;;3.22;1.70;;;18.10;99.90;;;;;;5034310;28;20516;-66
2023/03/22 20:53:18;;;;;;;3.90;1.60;;;18.10;99.90;;;;;;5034247;28;20055;-67
2023/03/22 20:55:50;;;;;;;2.83;1.60;;;18.10;99.90;;;;;;5034116;28;20025;-66
2023/03/22 20:58:17;;;;;;;4.00;1.83;;;18.10;99.90;;;;;;5034252;28;20033;-67
2023/03/22 21:00:44;;;;;;;3.78;1.67;;;18.00;99.90;;;;;;5034310;28;20362;-66
2023/03/22 21:03:12;;;;;;;3.88;1.70;;;18.00;99.90;;;;;;5032203;28;20044;-66
2023/03/22 21:05:39;;;;;;;2.53;1.60;;;18.00;99.90;;;;;;5034500;28;20072;-67
2023/03/22 21:08:05;;;;;;;2.78;1.60;;;18.00;99.90;;;;;;5034172;28;20037;-66
2023/03/22 21:10:31;;;;;;;3.50;1.95;;;18.00;99.90;;;;;;5033413;28;20463;-66
2023/03/22 21:12:57;;;;;;;4.18;1.90;;;18.00;99.90;;;;;;5033895;28;20034;-67
2023/03/22 21:15:24;;;;;;;5.13;1.90;;;18.00;99.90;;;;;;5049760;28;20041;-67
2023/03/22 21:17:53;;;;;;;3.47;1.70;;;18.00;99.90;;;;;;5048211;28;20066;-66
2023/03/22 21:20:20;;;;;;;3.13;1.75;;;18.00;99.90;;;;;;5034202;28;20033;-66
2023/03/22 21:22:46;;;;;;;2.65;1.70;;;18.00;99.90;;;;;;5033981;28;20352;-66
2023/03/22 21:25:12;;;;;;;3.17;1.70;;;18.00;99.90;;;;;;5037761;28;20417;-67
2023/03/22 21:27:38;;;;;;;3.03;1.90;;;18.00;99.90;;;;;;5036630;28;20041;-66